Main page
Satellite images 15-day forecastsClimateMarine weather Cyclones Lightning AirportsFAQ Newsletter About
Weather : Europe Africa North America South America Asia Australia-Oceania Others
Languages Contact

Bucharest, Romania

Henri Coandă

latitude: 44-33N, longitude: 026-06E, elevation: 95 m


METAR: LROP 291530Z VRB02KT CAVOK 25/09 Q1020 NOSIG
short-TAF: out of date (33207 hours)
long-TAF: LROP 291100Z 2912/3012 VRB04KT CAVOK

Time: 19:02 (16:02 UTC)

Current weather observation

The report was made 32 minutes ago, at 15:30 UTC  
Wind 02 kt from variable directions
Temperature 25°C
Humidity 36%
Pressure 1020 hPa
Visibility 10 km or more
no clouds below 1500 m and no cumulonimbus

Change units

Forecast

The report was made 4 hours and 29 minutes ago, at 11:33 UTC  
Forecast valid from 29 at 12 UTC to 30 at 12 UTC
Wind 04 kt from variable directions
Visibility 10 km or more
no clouds below 1500 m and no cumulonimbus
The information on this site is subject to a disclaimer
Weather : Europe Africa North America South America Asia Australia-Oceania Others
Satellite images 15-day forecastsClimateMarine weather Cyclones Lightning AirportsFAQ Languages Contact Newsletter About